createdAt,value
2022-08-21T00:09:49.443Z,98192.42
2022-08-21T00:20:19.276Z,98187.67
2022-08-21T00:30:49.296Z,98175.36
2022-08-21T00:41:37.404Z,98169.95
2022-08-21T00:52:11.540Z,98139.27
2022-08-21T01:02:40.713Z,98125.42
2022-08-21T01:13:11.976Z,98121.66
2022-08-21T01:23:44.515Z,98110.80
2022-08-21T01:34:14.327Z,98093.71
2022-08-21T01:44:43.801Z,98079.83
2022-08-21T01:55:14.117Z,98048.29
2022-08-21T02:05:42.992Z,98043.74
2022-08-21T02:16:12.658Z,98057.27
2022-08-21T02:26:46.171Z,98039.33
2022-08-21T02:37:16.242Z,98032.23
2022-08-21T02:47:51.752Z,98037.19
2022-08-21T02:58:23.567Z,98035.41
2022-08-21T03:08:52.668Z,98027.20
2022-08-21T03:19:22.067Z,98046.73
2022-08-21T03:29:50.881Z,98066.42
2022-08-21T03:40:21.824Z,98072.23
2022-08-21T03:50:51.267Z,98075.34
2022-08-21T04:01:20.184Z,98075.68
2022-08-21T04:11:50.509Z,98079.54
2022-08-21T04:22:19.717Z,98087.55
2022-08-21T04:32:50.887Z,98094.42
2022-08-21T04:43:20.825Z,98091.14
2022-08-21T04:53:53.419Z,98092.46
2022-08-21T05:04:29.326Z,98081.16
2022-08-21T05:14:58.281Z,98095.80
2022-08-21T05:25:28.184Z,98089.84
2022-08-21T05:35:58.325Z,98092.88
2022-08-21T05:46:27.387Z,98114.42
2022-08-21T05:56:56.570Z,98114.05
2022-08-21T06:07:25.430Z,98121.27
2022-08-21T06:17:54.898Z,98128.56
2022-08-21T06:28:23.856Z,98123.70
2022-08-21T06:38:52.826Z,98129.85
2022-08-21T06:49:21.833Z,98143.66
2022-08-21T06:59:50.762Z,98153.21
2022-08-21T07:10:22.124Z,98156.91
2022-08-21T07:20:52.279Z,98165.84
2022-08-21T07:31:23.377Z,98162.44
2022-08-21T07:41:52.402Z,98172.15
2022-08-21T07:52:22.054Z,98182.22
2022-08-21T08:02:53.228Z,98185.11
2022-08-21T08:13:22.287Z,98175.10
2022-08-21T08:23:51.660Z,98170.77
2022-08-21T08:34:23.635Z,98170.73
2022-08-21T08:45:01.592Z,98169.75
2022-08-21T08:55:36.601Z,98162.73
2022-08-21T09:06:14.153Z,98156.27
2022-08-21T09:16:57.805Z,98168.94
2022-08-21T09:27:26.921Z,98177.42
2022-08-21T09:38:00.810Z,98193.79
2022-08-21T09:48:32.589Z,98198.17
2022-08-21T09:59:02.443Z,98205.86
2022-08-21T10:09:31.739Z,98207.23
2022-08-21T10:20:08.495Z,98211.63
2022-08-21T10:30:47.971Z,98212.17
2022-08-21T10:41:24.402Z,98217.45
2022-08-21T10:52:04.753Z,98218.39
2022-08-21T11:02:40.267Z,98212.53
2022-08-21T11:13:15.168Z,98201.83
2022-08-21T11:23:49.670Z,98203.27
2022-08-21T11:34:35.881Z,98198.59
2022-08-21T11:45:16.824Z,98201.98
2022-08-21T11:55:51.836Z,98205.86
2022-08-21T12:06:29.991Z,98208.20
2022-08-21T12:17:12.258Z,98208.83
2022-08-21T12:27:51.975Z,98209.34
2022-08-21T12:38:24.666Z,98222.61
2022-08-21T12:48:59.164Z,98226.34
2022-08-21T12:59:28.201Z,98224.21
2022-08-21T13:10:00.695Z,98223.92
2022-08-21T13:20:33.718Z,98228.14
2022-08-21T13:31:03.996Z,98238.58
2022-08-21T13:41:36.319Z,98242.97
2022-08-21T13:52:06.473Z,98249.91
2022-08-21T14:02:43.235Z,98258.61
2022-08-21T14:13:25.397Z,98253.30
2022-08-21T14:24:04.432Z,98263.46
2022-08-21T14:34:36.039Z,98263.69
2022-08-21T14:45:13.430Z,98262.86
2022-08-21T14:56:00.541Z,98270.13
2022-08-21T15:06:29.636Z,98275.85
2022-08-21T15:16:58.998Z,98276.80
2022-08-21T15:27:28.090Z,98282.45
2022-08-21T15:37:56.859Z,98288.61
2022-08-21T15:48:26.156Z,98300.47
2022-08-21T15:58:56.448Z,98304.30
2022-08-21T16:09:26.048Z,98302.58
2022-08-21T16:19:55.087Z,98311.30
2022-08-21T16:30:24.820Z,98315.08
2022-08-21T16:40:53.876Z,98316.46
2022-08-21T16:51:23.125Z,98316.53
2022-08-21T17:01:52.497Z,98309.29
2022-08-21T17:12:22.318Z,98297.23
2022-08-21T17:22:51.867Z,98286.77
2022-08-21T17:33:22.196Z,98275.56
2022-08-21T17:43:52.069Z,98268.75
2022-08-21T17:54:21.034Z,98261.85
2022-08-21T18:04:51.063Z,98297.20
2022-08-21T18:15:22.163Z,98303.92
2022-08-21T18:25:56.702Z,98317.14
2022-08-21T18:36:25.999Z,98319.09
2022-08-21T18:46:58.136Z,98316.30
2022-08-21T18:57:30.231Z,98333.49
2022-08-21T19:08:00.947Z,98321.67
2022-08-21T19:18:31.738Z,98308.81
2022-08-21T19:29:04.119Z,98297.34
2022-08-21T19:39:41.361Z,98285.13
2022-08-21T19:50:17.942Z,98275.09
2022-08-21T20:00:50.863Z,98275.55
2022-08-21T20:11:26.637Z,98258.06
2022-08-21T20:21:56.127Z,98260.20
2022-08-21T20:32:25.491Z,98260.39
2022-08-21T20:42:57.354Z,98250.32
2022-08-21T20:53:43.840Z,98232.63
2022-08-21T21:04:23.799Z,98229.85
2022-08-21T21:14:59.794Z,98232.42
2022-08-21T21:25:39.768Z,98229.16
2022-08-21T21:36:18.323Z,98214.42
2022-08-21T21:46:56.904Z,98216.84
2022-08-21T21:57:55.135Z,98211.05
2022-08-21T22:08:32.847Z,98221.14
2022-08-21T22:19:06.567Z,98230.10
2022-08-21T22:29:48.671Z,98223.83
2022-08-21T22:40:26.508Z,98218.50
2022-08-21T22:51:02.572Z,98226.89
2022-08-21T23:01:40.199Z,98201.12
2022-08-21T23:12:34.105Z,98201.92
2022-08-21T23:23:12.199Z,98202.30
2022-08-21T23:34:05.933Z,98191.48
2022-08-21T23:44:48.375Z,98186.67
2022-08-21T23:55:30.269Z,98186.98
